createdAt,value
2023-02-25T00:02:03.184Z,2.55
2023-02-25T00:04:31.853Z,2.45
2023-02-25T00:07:19.125Z,2.39
2023-02-25T00:09:47.854Z,2.47
2023-02-25T00:12:15.379Z,2.49
2023-02-25T00:14:42.959Z,2.43
2023-02-25T00:17:12.110Z,2.40
2023-02-25T00:19:39.776Z,2.54
2023-02-25T00:22:07.122Z,2.35
2023-02-25T00:24:36.177Z,2.30
2023-02-25T00:27:04.612Z,2.40
2023-02-25T00:29:32.071Z,2.37
2023-02-25T00:31:59.846Z,2.27
2023-02-25T00:34:28.692Z,2.33
2023-02-25T00:36:56.103Z,2.37
2023-02-25T00:39:24.705Z,2.38
2023-02-25T00:41:52.246Z,2.45
2023-02-25T00:44:19.717Z,2.61
2023-02-25T00:46:47.120Z,2.47
2023-02-25T00:49:27.061Z,2.35
2023-02-25T00:52:00.276Z,2.41
2023-02-25T00:54:27.998Z,2.42
2023-02-25T00:56:55.462Z,2.48
2023-02-25T00:59:23.070Z,2.41
2023-02-25T01:01:51.327Z,2.47
2023-02-25T01:04:19.190Z,2.54
2023-02-25T01:06:47.826Z,2.54
2023-02-25T01:09:15.605Z,2.64
2023-02-25T01:11:45.806Z,2.48
2023-02-25T01:14:17.443Z,2.56
2023-02-25T01:16:46.803Z,2.58
2023-02-25T01:19:23.013Z,2.54
2023-02-25T01:21:54.979Z,2.41
2023-02-25T01:24:31.296Z,2.47
2023-02-25T01:27:02.141Z,2.48
2023-02-25T01:29:35.374Z,2.33
2023-02-25T01:32:04.560Z,2.30
2023-02-25T01:34:32.499Z,2.21
2023-02-25T01:37:06.553Z,2.26
2023-02-25T01:39:34.949Z,2.33
2023-02-25T01:42:05.323Z,2.27
2023-02-25T01:44:36.809Z,2.09
2023-02-25T01:47:20.775Z,2.14
2023-02-25T01:49:48.424Z,2.22
2023-02-25T01:52:21.010Z,2.24
2023-02-25T01:54:54.078Z,2.24
2023-02-25T01:57:22.144Z,2.35
2023-02-25T01:59:52.117Z,2.08
2023-02-25T02:02:26.333Z,2.21
2023-02-25T02:04:54.933Z,2.27
2023-02-25T02:07:24.892Z,2.28
2023-02-25T02:09:57.267Z,2.26
2023-02-25T02:12:31.851Z,2.43
2023-02-25T02:15:02.766Z,2.39
2023-02-25T02:17:33.324Z,2.36
2023-02-25T02:20:30.876Z,2.30
2023-02-25T02:23:24.687Z,2.33
2023-02-25T02:26:27.509Z,2.26
2023-02-25T02:29:20.662Z,2.30
2023-02-25T02:32:00.430Z,2.44
2023-02-25T02:34:48.867Z,2.37
2023-02-25T02:37:30.547Z,2.47
2023-02-25T02:40:14.576Z,2.40
2023-02-25T02:43:01.544Z,2.38
2023-02-25T02:45:38.833Z,2.37
2023-02-25T02:48:11.736Z,2.41
2023-02-25T02:50:45.324Z,2.39
2023-02-25T02:53:28.933Z,2.19
2023-02-25T02:56:01.298Z,2.18
2023-02-25T02:58:34.551Z,2.26
2023-02-25T03:01:16.823Z,2.35
2023-02-25T03:03:49.575Z,2.36
2023-02-25T03:06:23.711Z,2.46
2023-02-25T03:09:15.098Z,2.44
2023-02-25T03:11:43.113Z,2.27
2023-02-25T03:14:13.086Z,2.48
2023-02-25T03:16:51.668Z,2.47
2023-02-25T03:19:27.207Z,2.35
2023-02-25T03:22:02.322Z,2.49
2023-02-25T03:24:37.779Z,2.47
2023-02-25T03:27:35.441Z,2.46
2023-02-25T03:30:27.814Z,2.55
2023-02-25T03:33:11.550Z,2.45
2023-02-25T03:35:41.766Z,2.58
2023-02-25T03:38:14.146Z,2.71
2023-02-25T03:40:43.692Z,2.67
2023-02-25T03:43:21.436Z,2.69
2023-02-25T03:45:49.296Z,2.74
2023-02-25T03:48:19.385Z,2.81
2023-02-25T03:51:01.927Z,2.80
2023-02-25T03:53:50.284Z,2.65
2023-02-25T03:56:18.261Z,2.71
2023-02-25T03:58:45.659Z,2.74
2023-02-25T04:01:30.395Z,2.67
2023-02-25T04:03:58.332Z,2.70
2023-02-25T04:06:25.979Z,2.76
2023-02-25T04:08:54.852Z,2.80
2023-02-25T04:11:22.206Z,2.88
2023-02-25T04:13:49.869Z,2.88
2023-02-25T04:16:17.430Z,2.89
2023-02-25T04:18:49.075Z,2.81
2023-02-25T04:21:30.457Z,2.70
2023-02-25T04:23:59.097Z,2.66
2023-02-25T04:26:27.078Z,2.65
2023-02-25T04:28:59.079Z,2.87
2023-02-25T04:31:27.085Z,2.82
2023-02-25T04:33:54.733Z,2.74
2023-02-25T04:36:29.952Z,2.91
2023-02-25T04:38:59.282Z,2.91
2023-02-25T04:41:34.381Z,2.92
2023-02-25T04:44:05.140Z,2.96
2023-02-25T04:46:42.629Z,2.97
2023-02-25T04:49:12.107Z,2.99
2023-02-25T04:51:41.867Z,2.85
2023-02-25T04:54:09.566Z,2.98
2023-02-25T04:56:38.833Z,3.04
2023-02-25T04:59:07.625Z,3.01
2023-02-25T05:01:35.210Z,3.15
2023-02-25T05:04:03.071Z,3.24
2023-02-25T05:06:31.066Z,3.32
2023-02-25T05:09:00.407Z,3.27
2023-02-25T05:11:29.385Z,3.29
2023-02-25T05:13:58.436Z,3.40
2023-02-25T05:16:27.772Z,3.47
2023-02-25T05:18:55.846Z,3.43
2023-02-25T05:21:26.683Z,3.64
2023-02-25T05:23:54.504Z,3.75
2023-02-25T05:26:25.128Z,3.72
2023-02-25T05:28:55.023Z,3.51
2023-02-25T05:31:25.003Z,3.41
2023-02-25T05:33:53.400Z,3.42
2023-02-25T05:36:21.498Z,3.43
2023-02-25T05:38:49.268Z,3.48
2023-02-25T05:41:16.662Z,3.60
2023-02-25T05:43:46.097Z,3.50
2023-02-25T05:46:14.370Z,3.59
2023-02-25T05:48:46.035Z,3.69
2023-02-25T05:51:19.380Z,3.53
2023-02-25T05:53:48.113Z,3.63
2023-02-25T05:56:18.880Z,3.67
2023-02-25T05:58:48.481Z,3.48
2023-02-25T06:01:19.889Z,3.58
2023-02-25T06:03:48.698Z,3.71
2023-02-25T06:06:18.218Z,3.58
2023-02-25T06:08:45.938Z,3.70
2023-02-25T06:11:19.969Z,3.58
2023-02-25T06:13:51.894Z,3.75
2023-02-25T06:16:21.637Z,3.84
2023-02-25T06:18:51.842Z,3.79
2023-02-25T06:21:19.946Z,3.79
2023-02-25T06:23:50.499Z,3.91
2023-02-25T06:26:24.298Z,3.85
2023-02-25T06:28:52.093Z,3.93
2023-02-25T06:31:22.566Z,3.87
2023-02-25T06:33:51.108Z,3.89
2023-02-25T06:36:21.843Z,3.82
2023-02-25T06:38:49.715Z,3.93
2023-02-25T06:41:19.761Z,3.97
2023-02-25T06:43:52.281Z,3.93
2023-02-25T06:46:24.356Z,3.83
2023-02-25T06:48:52.582Z,4.04
2023-02-25T06:51:20.339Z,3.97
2023-02-25T06:53:47.943Z,4.13
2023-02-25T06:56:16.592Z,4.05
2023-02-25T06:58:44.174Z,4.07
2023-02-25T07:01:15.004Z,4.08
2023-02-25T07:03:43.742Z,3.86
2023-02-25T07:06:15.456Z,4.12
2023-02-25T07:08:43.267Z,4.05
2023-02-25T07:11:15.340Z,3.97
2023-02-25T07:13:43.761Z,3.98
2023-02-25T07:16:13.157Z,4.18
2023-02-25T07:18:42.992Z,4.12
2023-02-25T07:21:12.525Z,4.12
2023-02-25T07:23:40.114Z,4.21
2023-02-25T07:26:10.004Z,4.04
2023-02-25T07:28:38.773Z,4.30
2023-02-25T07:31:12.505Z,4.41
2023-02-25T07:33:45.880Z,4.37
2023-02-25T07:36:14.299Z,4.11
2023-02-25T07:38:42.681Z,4.29
2023-02-25T07:41:12.624Z,4.43
2023-02-25T07:43:40.558Z,4.41
2023-02-25T07:46:11.426Z,4.24
2023-02-25T07:48:40.041Z,4.33
2023-02-25T07:51:12.896Z,4.35
2023-02-25T07:53:40.491Z,4.53
2023-02-25T07:56:08.664Z,4.56
2023-02-25T07:58:37.014Z,4.61
2023-02-25T08:01:10.922Z,4.64
2023-02-25T08:03:39.637Z,4.74
2023-02-25T08:06:08.424Z,4.78
2023-02-25T08:08:37.086Z,4.70
2023-02-25T08:11:07.614Z,4.83
2023-02-25T08:13:35.897Z,4.92
2023-02-25T08:16:08.474Z,4.90
2023-02-25T08:18:38.129Z,4.96
2023-02-25T08:21:05.705Z,5.00
2023-02-25T08:23:33.159Z,5.14
2023-02-25T08:26:01.169Z,5.01
2023-02-25T08:28:34.282Z,5.09
2023-02-25T08:31:04.568Z,5.13
2023-02-25T08:33:32.309Z,5.23
2023-02-25T08:36:11.755Z,5.37
2023-02-25T08:38:39.766Z,5.37
2023-02-25T08:41:09.539Z,5.55
2023-02-25T08:43:38.270Z,5.74
2023-02-25T08:46:06.835Z,5.87
2023-02-25T08:48:35.955Z,6.00
2023-02-25T08:51:08.923Z,6.31
2023-02-25T08:53:40.723Z,6.27
2023-02-25T08:56:11.081Z,6.42
2023-02-25T08:58:39.956Z,6.35
2023-02-25T09:01:14.354Z,6.70
2023-02-25T09:03:53.050Z,6.66
2023-02-25T09:06:28.071Z,6.75
2023-02-25T09:08:57.983Z,6.94
2023-02-25T09:11:26.126Z,6.84
2023-02-25T09:13:54.501Z,6.88
2023-02-25T09:16:22.020Z,7.04
2023-02-25T09:18:51.707Z,6.94
2023-02-25T09:21:25.718Z,7.20
2023-02-25T09:23:54.225Z,7.41
2023-02-25T09:26:22.691Z,7.73
2023-02-25T09:28:50.264Z,7.72
2023-02-25T09:31:18.575Z,7.96
2023-02-25T09:33:47.917Z,7.99
2023-02-25T09:36:17.503Z,7.89
2023-02-25T09:38:46.444Z,7.84
2023-02-25T09:41:33.998Z,8.41
2023-02-25T09:44:07.058Z,8.52
2023-02-25T09:46:41.551Z,8.75
2023-02-25T09:49:10.080Z,9.22
2023-02-25T09:51:43.882Z,9.44
2023-02-25T09:54:15.954Z,9.56
2023-02-25T09:56:44.252Z,9.97
2023-02-25T09:59:21.633Z,10.08
2023-02-25T10:01:57.428Z,9.80
2023-02-25T10:05:00.307Z,10.03
2023-02-25T10:07:36.003Z,10.64
2023-02-25T10:10:14.785Z,10.78
2023-02-25T10:13:04.165Z,10.96
2023-02-25T10:15:53.311Z,11.16
2023-02-25T10:18:37.813Z,10.86
2023-02-25T10:21:39.590Z,11.59
2023-02-25T10:24:26.873Z,11.11
2023-02-25T10:27:07.557Z,11.69
2023-02-25T10:30:12.778Z,11.58
2023-02-25T10:32:43.714Z,11.46
2023-02-25T10:35:24.207Z,11.60
2023-02-25T10:37:51.933Z,11.28
2023-02-25T10:40:23.125Z,11.32
2023-02-25T10:42:54.581Z,11.07
2023-02-25T10:45:29.294Z,10.98
2023-02-25T10:48:11.697Z,11.05
2023-02-25T10:50:45.869Z,10.68
2023-02-25T10:53:18.775Z,10.80
2023-02-25T10:55:52.074Z,10.49
2023-02-25T10:58:25.166Z,10.69
2023-02-25T11:01:23.952Z,10.84
2023-02-25T11:03:59.408Z,10.62
2023-02-25T11:06:31.021Z,10.90
2023-02-25T11:09:01.412Z,10.78
2023-02-25T11:11:39.046Z,10.78
2023-02-25T11:14:09.538Z,11.02
2023-02-25T11:16:39.342Z,10.69
2023-02-25T11:19:18.285Z,10.51
2023-02-25T11:21:47.322Z,10.44
2023-02-25T11:24:28.595Z,10.68
2023-02-25T11:26:57.214Z,10.93
2023-02-25T11:29:32.321Z,10.51
2023-02-25T11:32:12.536Z,10.70
2023-02-25T11:34:56.443Z,10.75
2023-02-25T11:40:02.075Z,10.63
2023-02-25T11:42:31.403Z,10.95
2023-02-25T11:45:04.648Z,10.63
2023-02-25T11:47:36.038Z,10.72
2023-02-25T11:50:37.540Z,10.82
2023-02-25T11:53:29.178Z,10.97
2023-02-25T11:56:15.531Z,11.00
2023-02-25T11:59:12.806Z,11.08
2023-02-25T12:01:55.645Z,11.23
2023-02-25T12:04:28.622Z,11.13
2023-02-25T12:07:17.955Z,11.50
2023-02-25T12:09:45.308Z,11.28
2023-02-25T12:12:45.290Z,11.53
2023-02-25T12:15:40.757Z,11.86
2023-02-25T12:18:10.868Z,12.30
2023-02-25T12:21:00.383Z,12.47
2023-02-25T12:23:39.984Z,12.85
2023-02-25T12:26:20.005Z,12.92
2023-02-25T12:29:08.527Z,13.11
2023-02-25T12:32:00.918Z,13.18
2023-02-25T12:34:34.537Z,13.33
2023-02-25T12:37:13.985Z,13.46
2023-02-25T12:39:48.430Z,13.29
2023-02-25T12:42:33.270Z,13.82
2023-02-25T12:45:22.431Z,13.96
2023-02-25T12:48:27.624Z,13.91
2023-02-25T12:51:35.477Z,14.12
2023-02-25T12:54:28.487Z,14.11
2023-02-25T12:57:10.238Z,14.06
2023-02-25T13:00:34.508Z,13.64
2023-02-25T13:03:21.369Z,13.58
2023-02-25T13:06:14.670Z,13.73
2023-02-25T13:09:01.284Z,14.09
2023-02-25T13:12:12.030Z,13.85
2023-02-25T13:14:51.944Z,13.80
2023-02-25T13:17:37.634Z,13.74
2023-02-25T13:20:26.857Z,13.65
2023-02-25T13:23:09.639Z,13.63
2023-02-25T13:26:16.895Z,13.31
2023-02-25T13:29:19.941Z,13.35
2023-02-25T13:32:26.616Z,13.29
2023-02-25T13:35:35.317Z,13.20
2023-02-25T13:38:15.976Z,13.02
2023-02-25T13:41:15.193Z,13.02
2023-02-25T13:43:51.903Z,12.95
2023-02-25T13:46:19.240Z,12.80
2023-02-25T13:48:55.833Z,12.84
2023-02-25T13:52:02.269Z,12.71
2023-02-25T13:54:47.918Z,12.70
2023-02-25T13:57:31.269Z,12.53
2023-02-25T14:00:23.968Z,12.45
2023-02-25T14:03:29.690Z,12.45
2023-02-25T14:06:15.141Z,12.51
2023-02-25T14:09:07.635Z,12.45
2023-02-25T14:11:43.840Z,12.43
2023-02-25T14:14:36.409Z,12.24
2023-02-25T14:17:22.395Z,12.25
2023-02-25T14:20:23.637Z,12.24
2023-02-25T14:23:06.790Z,12.17
2023-02-25T14:25:52.806Z,11.94
2023-02-25T14:28:32.123Z,11.86
2023-02-25T14:31:00.086Z,11.84
2023-02-25T14:33:59.713Z,11.84
2023-02-25T14:36:46.418Z,11.96
2023-02-25T14:39:38.990Z,11.54
2023-02-25T14:42:35.735Z,11.39
2023-02-25T14:45:08.955Z,11.02
2023-02-25T14:47:43.203Z,11.06
2023-02-25T14:50:20.502Z,10.93
2023-02-25T14:53:03.579Z,10.86
2023-02-25T14:55:52.484Z,10.79
2023-02-25T14:58:26.516Z,10.72
2023-02-25T15:01:18.696Z,10.68
2023-02-25T15:03:55.657Z,10.66
2023-02-25T15:06:42.210Z,10.61
2023-02-25T15:10:03.864Z,10.40
2023-02-25T15:12:58.829Z,10.34
2023-02-25T15:15:50.966Z,10.23
2023-02-25T15:18:27.954Z,10.25
2023-02-25T15:20:56.401Z,9.98
2023-02-25T15:23:49.914Z,10.19
2023-02-25T15:26:22.054Z,9.99
2023-02-25T15:28:52.374Z,10.09
2023-02-25T15:31:31.367Z,9.98
2023-02-25T15:34:23.583Z,9.99
2023-02-25T15:37:30.282Z,10.03
2023-02-25T15:40:16.894Z,9.98
2023-02-25T15:42:48.858Z,9.95
2023-02-25T15:45:29.044Z,9.99
2023-02-25T15:48:11.686Z,9.98
2023-02-25T15:50:51.884Z,9.95
2023-02-25T15:53:23.538Z,9.96
2023-02-25T15:56:06.603Z,9.96
2023-02-25T15:58:45.347Z,9.90
2023-02-25T16:01:39.958Z,9.84
2023-02-25T16:04:47.467Z,9.79
2023-02-25T16:07:18.777Z,9.77
2023-02-25T16:09:57.419Z,9.69
2023-02-25T16:12:25.697Z,9.52
2023-02-25T16:14:56.796Z,9.54
2023-02-25T16:17:32.585Z,9.56
2023-02-25T16:20:13.765Z,9.49
2023-02-25T16:22:46.097Z,9.56
2023-02-25T16:25:19.022Z,9.54
2023-02-25T16:27:58.178Z,9.56
2023-02-25T16:31:03.900Z,9.46
2023-02-25T16:34:20.543Z,9.57
2023-02-25T16:37:09.920Z,9.47
2023-02-25T16:39:38.086Z,9.29
2023-02-25T16:42:12.320Z,9.48
2023-02-25T16:44:42.138Z,9.37
2023-02-25T16:47:31.262Z,9.34
2023-02-25T16:50:01.979Z,9.32
2023-02-25T16:52:34.281Z,9.27
2023-02-25T16:55:12.441Z,9.34
2023-02-25T16:57:40.274Z,9.34
2023-02-25T17:00:23.151Z,9.22
2023-02-25T17:02:52.658Z,9.24
2023-02-25T17:05:36.629Z,9.22
2023-02-25T17:08:14.603Z,9.27
2023-02-25T17:10:56.744Z,9.26
2023-02-25T17:13:36.616Z,9.27
2023-02-25T17:16:06.070Z,9.36
2023-02-25T17:18:50.131Z,9.41
2023-02-25T17:21:27.285Z,9.32
2023-02-25T17:23:55.197Z,9.31
2023-02-25T17:26:23.233Z,9.38
2023-02-25T17:28:55.810Z,9.40
2023-02-25T17:31:27.097Z,9.38
2023-02-25T17:33:58.945Z,9.63
2023-02-25T17:36:35.677Z,9.46
2023-02-25T17:39:07.742Z,9.50
2023-02-25T17:41:36.768Z,9.45
2023-02-25T17:44:04.490Z,9.41
2023-02-25T17:46:44.717Z,9.38
2023-02-25T17:49:21.802Z,9.27
2023-02-25T17:51:55.487Z,9.17
2023-02-25T17:54:25.294Z,9.05
2023-02-25T17:57:02.156Z,9.07
2023-02-25T17:59:41.157Z,9.08
2023-02-25T18:02:29.083Z,9.12
2023-02-25T18:05:21.607Z,9.17
2023-02-25T18:07:57.834Z,9.08
2023-02-25T18:10:31.451Z,9.10
2023-02-25T18:13:02.501Z,9.06
2023-02-25T18:15:33.315Z,9.19
2023-02-25T18:18:07.468Z,9.16
2023-02-25T18:20:42.345Z,9.12
2023-02-25T18:23:27.815Z,9.13
2023-02-25T18:26:19.226Z,9.13
2023-02-25T18:28:47.527Z,9.08
2023-02-25T18:31:16.963Z,9.09
2023-02-25T18:33:46.217Z,9.06
2023-02-25T18:36:26.595Z,8.96
2023-02-25T18:39:02.335Z,8.89
2023-02-25T18:41:30.961Z,8.99
2023-02-25T18:43:59.061Z,9.03
2023-02-25T18:46:30.446Z,8.91
2023-02-25T18:48:58.400Z,9.05
2023-02-25T18:51:25.742Z,9.04
2023-02-25T18:53:53.331Z,8.90
2023-02-25T18:56:21.380Z,8.96
2023-02-25T18:58:48.833Z,8.92
2023-02-25T19:01:23.629Z,9.02
2023-02-25T19:03:52.049Z,9.12
2023-02-25T19:06:19.764Z,9.06
2023-02-25T19:08:47.149Z,9.01
2023-02-25T19:11:22.058Z,8.96
2023-02-25T19:13:49.843Z,8.97
2023-02-25T19:16:17.401Z,9.20
2023-02-25T19:18:47.294Z,9.27
2023-02-25T19:21:20.367Z,9.33
2023-02-25T19:23:51.762Z,9.25
2023-02-25T19:26:19.916Z,9.43
2023-02-25T19:28:47.629Z,9.43
2023-02-25T19:31:15.285Z,9.46
2023-02-25T19:33:43.942Z,9.43
2023-02-25T19:36:12.090Z,9.40
2023-02-25T19:38:39.503Z,9.39
2023-02-25T19:41:07.767Z,9.39
2023-02-25T19:43:35.290Z,9.44
2023-02-25T19:46:07.109Z,9.39
2023-02-25T19:48:35.080Z,9.35
2023-02-25T19:51:07.019Z,9.43
2023-02-25T19:53:37.289Z,9.35
2023-02-25T19:56:08.040Z,9.28
2023-02-25T19:58:36.819Z,9.51
2023-02-25T20:01:06.648Z,9.45
2023-02-25T20:03:36.694Z,9.47
2023-02-25T20:06:13.296Z,9.42
2023-02-25T20:08:44.254Z,9.58
2023-02-25T20:11:12.313Z,9.71
2023-02-25T20:13:39.833Z,9.74
2023-02-25T20:16:09.353Z,9.78
2023-02-25T20:18:37.022Z,9.77
2023-02-25T20:21:05.457Z,9.78
2023-02-25T20:23:33.278Z,9.80
2023-02-25T20:26:09.776Z,9.79
2023-02-25T20:28:37.679Z,9.89
2023-02-25T20:31:13.889Z,9.93
2023-02-25T20:33:42.435Z,9.82
2023-02-25T20:36:36.077Z,9.94
2023-02-25T20:39:12.733Z,9.86
2023-02-25T20:41:42.169Z,9.88
2023-02-25T20:44:10.920Z,9.95
2023-02-25T20:46:40.364Z,9.80
2023-02-25T20:49:12.162Z,9.88
2023-02-25T20:51:39.924Z,9.92
2023-02-25T20:54:07.630Z,9.93
2023-02-25T20:56:40.396Z,9.93
2023-02-25T20:59:08.917Z,9.94
2023-02-25T21:01:36.322Z,10.03
2023-02-25T21:04:06.375Z,10.05
2023-02-25T21:06:34.617Z,9.99
2023-02-25T21:09:02.152Z,9.97
2023-02-25T21:11:29.596Z,10.00
2023-02-25T21:13:57.330Z,9.94
2023-02-25T21:16:25.358Z,9.90
2023-02-25T21:18:53.635Z,9.92
2023-02-25T21:21:21.892Z,10.01
2023-02-25T21:23:52.816Z,9.98
2023-02-25T21:26:20.292Z,9.94
2023-02-25T21:28:47.740Z,9.99
2023-02-25T21:31:16.249Z,10.07
2023-02-25T21:33:43.798Z,10.05
2023-02-25T21:36:11.634Z,10.15
2023-02-25T21:38:39.919Z,10.07
2023-02-25T21:41:12.926Z,10.01
2023-02-25T21:43:42.962Z,9.99
2023-02-25T21:46:13.634Z,10.00
2023-02-25T21:48:42.814Z,10.07
2023-02-25T21:51:22.626Z,10.02
2023-02-25T21:53:57.527Z,10.20
2023-02-25T21:56:27.127Z,10.06
2023-02-25T21:58:57.061Z,10.15
2023-02-25T22:01:37.206Z,10.01
2023-02-25T22:04:05.605Z,10.12
2023-02-25T22:06:34.714Z,10.23
2023-02-25T22:09:04.259Z,10.18
2023-02-25T22:11:34.688Z,10.18
2023-02-25T22:14:07.479Z,10.33
2023-02-25T22:16:35.868Z,10.13
2023-02-25T22:19:04.283Z,10.17
2023-02-25T22:21:35.569Z,10.32
2023-02-25T22:24:04.834Z,10.42
2023-02-25T22:26:37.600Z,10.39
2023-02-25T22:29:07.820Z,10.33
2023-02-25T22:31:36.343Z,10.53
2023-02-25T22:34:05.849Z,10.55
2023-02-25T22:36:33.251Z,10.45
2023-02-25T22:39:05.572Z,10.40
2023-02-25T22:41:33.415Z,10.39
2023-02-25T22:44:01.608Z,10.33
2023-02-25T22:46:36.160Z,10.32
2023-02-25T22:49:05.119Z,10.12
2023-02-25T22:51:42.143Z,9.98
2023-02-25T22:54:15.287Z,10.16
2023-02-25T22:56:43.475Z,10.06
2023-02-25T22:59:12.168Z,9.89
2023-02-25T23:01:40.539Z,9.79
2023-02-25T23:04:10.884Z,9.81
2023-02-25T23:06:44.543Z,9.77
2023-02-25T23:09:14.032Z,9.77
2023-02-25T23:11:44.363Z,9.71
2023-02-25T23:14:13.607Z,9.69
2023-02-25T23:16:44.157Z,9.64
2023-02-25T23:19:15.933Z,9.65
2023-02-25T23:21:44.147Z,9.65
2023-02-25T23:24:18.680Z,9.47
2023-02-25T23:26:50.483Z,9.47
2023-02-25T23:29:18.666Z,9.45
2023-02-25T23:31:49.937Z,9.49
2023-02-25T23:34:23.506Z,9.43
2023-02-25T23:36:56.078Z,9.50
2023-02-25T23:39:24.015Z,9.55
2023-02-25T23:41:51.566Z,9.48
2023-02-25T23:44:19.348Z,9.45
2023-02-25T23:46:47.520Z,9.45
2023-02-25T23:49:16.219Z,9.46
2023-02-25T23:51:46.185Z,9.41
2023-02-25T23:54:16.688Z,9.45
2023-02-25T23:56:44.053Z,9.49
2023-02-25T23:59:12.568Z,9.50
